createdAt,value
2023-04-07T00:01:12.750Z,5.22
2023-04-07T00:03:41.672Z,4.47
2023-04-07T00:06:11.441Z,5.03
2023-04-07T00:08:39.136Z,4.65
2023-04-07T00:11:06.555Z,6.40
2023-04-07T00:13:33.904Z,5.97
2023-04-07T00:16:01.078Z,6.95
2023-04-07T00:18:28.666Z,5.78
2023-04-07T00:20:55.817Z,4.65
2023-04-07T00:23:23.133Z,8.10
2023-04-07T00:25:50.846Z,5.82
2023-04-07T00:28:18.091Z,6.65
2023-04-07T00:30:45.427Z,5.63
2023-04-07T00:33:37.576Z,5.30
2023-04-07T00:36:05.139Z,6.47
2023-04-07T00:38:32.545Z,5.43
2023-04-07T00:41:00.568Z,5.63
2023-04-07T00:43:28.012Z,6.07
2023-04-07T00:45:56.000Z,5.03
2023-04-07T00:48:23.638Z,5.93
2023-04-07T00:50:50.819Z,7.35
2023-04-07T00:53:18.269Z,6.18
2023-04-07T00:58:43.347Z,4.70
2023-04-07T01:01:21.425Z,4.18
2023-04-07T01:04:08.596Z,4.50
2023-04-07T01:06:40.706Z,4.20
2023-04-07T01:09:21.813Z,5.43
2023-04-07T01:12:24.579Z,5.43
2023-04-07T01:15:09.625Z,4.85
2023-04-07T01:17:53.320Z,4.53
2023-04-07T01:20:24.331Z,5.63
2023-04-07T01:23:02.040Z,3.90
2023-04-07T01:25:44.852Z,4.60
2023-04-07T01:28:44.274Z,5.05
2023-04-07T01:31:15.767Z,4.78
2023-04-07T01:33:46.443Z,4.38
2023-04-07T01:36:14.621Z,5.22
2023-04-07T01:38:43.970Z,4.80
2023-04-07T01:41:12.103Z,4.95
2023-04-07T01:43:41.722Z,4.05
2023-04-07T01:46:09.424Z,4.32
2023-04-07T01:48:39.908Z,4.45
2023-04-07T01:51:08.006Z,5.40
2023-04-07T01:53:39.325Z,3.03
2023-04-07T01:58:36.586Z,3.90
2023-04-07T02:01:06.452Z,3.88
2023-04-07T02:04:11.470Z,5.10
2023-04-07T02:07:06.309Z,3.80
2023-04-07T02:09:41.093Z,4.22
2023-04-07T02:12:12.033Z,5.53
2023-04-07T02:14:44.955Z,3.05
2023-04-07T02:17:16.579Z,2.83
2023-04-07T02:19:46.282Z,5.00
2023-04-07T02:22:15.877Z,4.97
2023-04-07T02:24:43.569Z,7.00
2023-04-07T02:27:10.987Z,4.72
2023-04-07T02:29:38.161Z,3.92
2023-04-07T02:32:07.035Z,4.07
2023-04-07T02:34:34.139Z,7.28
2023-04-07T02:37:01.421Z,4.40
2023-04-07T02:39:28.575Z,5.72
2023-04-07T02:41:56.327Z,4.70
2023-04-07T02:44:23.499Z,6.03
2023-04-07T02:46:51.005Z,5.72
2023-04-07T02:49:18.145Z,3.63
2023-04-07T02:51:47.147Z,6.40
2023-04-07T02:54:14.281Z,5.15
2023-04-07T02:56:44.601Z,3.03
2023-04-07T02:59:11.903Z,5.32
2023-04-07T03:01:42.927Z,3.60
2023-04-07T03:04:11.657Z,7.15
2023-04-07T03:06:38.990Z,5.45
2023-04-07T03:09:11.458Z,3.45
2023-04-07T03:11:40.141Z,3.40
2023-04-07T03:14:08.009Z,4.22
2023-04-07T03:16:42.683Z,6.32
2023-04-07T03:19:13.880Z,3.25
2023-04-07T03:21:44.603Z,3.22
2023-04-07T03:24:12.165Z,2.70
2023-04-07T03:26:39.300Z,5.13
2023-04-07T03:29:13.821Z,5.90
2023-04-07T03:31:42.902Z,4.45
2023-04-07T03:34:12.152Z,4.55
2023-04-07T03:36:39.810Z,6.30
2023-04-07T03:39:07.124Z,3.65
2023-04-07T03:41:34.308Z,5.05
2023-04-07T03:44:01.622Z,3.50
2023-04-07T03:46:39.786Z,4.93
2023-04-07T03:49:08.073Z,3.30
2023-04-07T03:51:35.721Z,3.67
2023-04-07T03:54:07.574Z,3.55
2023-04-07T03:56:39.703Z,5.85
2023-04-07T03:59:07.244Z,7.38
2023-04-07T04:01:39.711Z,4.60
2023-04-07T04:04:12.388Z,5.22
2023-04-07T04:06:43.172Z,4.70
2023-04-07T04:09:45.991Z,3.80
2023-04-07T04:12:13.489Z,3.63
2023-04-07T04:14:49.563Z,3.97
2023-04-07T04:17:18.034Z,5.15
2023-04-07T04:19:47.225Z,3.05
2023-04-07T04:22:35.073Z,4.90
2023-04-07T04:25:02.824Z,4.13
2023-04-07T04:27:34.581Z,3.58
2023-04-07T04:30:12.509Z,5.43
2023-04-07T04:32:46.620Z,3.47
2023-04-07T04:35:14.799Z,7.40
2023-04-07T04:37:52.321Z,4.07
2023-04-07T04:40:19.925Z,3.50
2023-04-07T04:42:49.274Z,4.70
2023-04-07T04:45:17.189Z,5.68
2023-04-07T04:47:47.634Z,2.77
2023-04-07T04:50:14.950Z,3.08
2023-04-07T04:52:44.945Z,4.38
2023-04-07T04:55:32.607Z,4.82
2023-04-07T04:58:01.866Z,3.40
2023-04-07T05:00:39.625Z,3.35
2023-04-07T05:03:11.956Z,9.27
2023-04-07T05:05:42.911Z,5.65
2023-04-07T05:08:11.809Z,4.57
2023-04-07T05:11:05.490Z,5.47
2023-04-07T05:13:34.677Z,4.25
2023-04-07T05:16:04.484Z,6.07
2023-04-07T05:18:31.894Z,4.45
2023-04-07T05:21:02.004Z,5.38
2023-04-07T05:23:30.616Z,5.40
2023-04-07T05:25:58.020Z,6.10
2023-04-07T05:28:25.712Z,3.38
2023-04-07T05:30:55.755Z,5.95
2023-04-07T05:33:28.274Z,11.20
2023-04-07T05:35:58.978Z,8.57
2023-04-07T05:38:26.431Z,8.90
2023-04-07T05:40:58.076Z,8.55
2023-04-07T05:43:30.145Z,10.77
2023-04-07T05:46:00.547Z,8.18
2023-04-07T05:48:29.873Z,10.60
2023-04-07T05:50:57.120Z,12.27
2023-04-07T05:53:24.977Z,6.05
2023-04-07T05:55:52.262Z,8.90
2023-04-07T05:58:26.657Z,6.72
2023-04-07T06:00:56.027Z,6.13
2023-04-07T06:03:23.296Z,6.22
2023-04-07T06:06:00.168Z,7.35
2023-04-07T06:08:27.490Z,8.77
2023-04-07T06:10:56.546Z,9.48
2023-04-07T06:13:24.043Z,5.57
2023-04-07T06:15:51.337Z,7.38
2023-04-07T06:18:20.100Z,8.82
2023-04-07T06:20:47.484Z,9.80
2023-04-07T06:23:19.020Z,9.57
2023-04-07T06:25:46.550Z,15.55
2023-04-07T06:28:14.003Z,10.95
2023-04-07T06:31:01.391Z,11.02
2023-04-07T06:33:28.760Z,11.20
2023-04-07T06:35:59.039Z,10.43
2023-04-07T06:38:27.460Z,13.18
2023-04-07T06:40:54.685Z,11.27
2023-04-07T06:43:22.062Z,10.43
2023-04-07T06:45:55.138Z,8.73
2023-04-07T06:48:24.975Z,13.27
2023-04-07T06:50:56.272Z,9.95
2023-04-07T06:53:23.789Z,12.20
2023-04-07T06:55:51.247Z,6.75
2023-04-07T06:58:18.498Z,7.35
2023-04-07T07:00:45.751Z,7.97
2023-04-07T07:03:13.178Z,7.10
2023-04-07T07:05:40.815Z,9.38
2023-04-07T07:08:09.923Z,9.50
2023-04-07T07:11:03.040Z,7.88
2023-04-07T07:13:30.762Z,6.70
2023-04-07T07:15:58.292Z,8.18
2023-04-07T07:18:25.889Z,8.95
2023-04-07T07:21:05.692Z,8.30
2023-04-07T07:23:34.147Z,9.48
2023-04-07T07:26:07.475Z,8.18
2023-04-07T07:28:44.364Z,9.68
2023-04-07T07:31:24.331Z,11.43
2023-04-07T07:33:52.190Z,11.23
2023-04-07T07:36:42.121Z,12.68
2023-04-07T07:39:11.285Z,13.20
2023-04-07T07:41:38.393Z,9.02
2023-04-07T07:44:06.038Z,9.63
2023-04-07T07:46:33.293Z,13.13
2023-04-07T07:49:00.543Z,7.85
2023-04-07T07:51:28.242Z,8.85
2023-04-07T07:53:55.797Z,13.27
2023-04-07T07:56:34.170Z,10.48
2023-04-07T07:59:02.549Z,10.48
2023-04-07T08:01:33.430Z,7.97
2023-04-07T08:06:52.150Z,7.22
2023-04-07T08:09:20.573Z,10.52
2023-04-07T08:12:41.241Z,8.25
2023-04-07T08:15:10.472Z,7.68
2023-04-07T08:17:38.145Z,8.40
2023-04-07T08:20:06.776Z,7.28
2023-04-07T08:22:34.071Z,9.25
2023-04-07T08:25:31.008Z,8.68
2023-04-07T08:27:58.430Z,4.90
2023-04-07T08:30:26.212Z,8.07
2023-04-07T08:36:10.292Z,5.97
2023-04-07T08:38:37.894Z,4.53
2023-04-07T08:41:10.560Z,7.28
2023-04-07T08:43:39.662Z,4.82
2023-04-07T08:46:09.831Z,6.20
2023-04-07T08:48:38.290Z,4.13
2023-04-07T08:51:08.529Z,4.60
2023-04-07T08:53:45.644Z,3.72
2023-04-07T08:56:13.308Z,5.13
2023-04-07T08:58:41.009Z,8.13
2023-04-07T09:01:09.775Z,5.97
2023-04-07T09:03:38.411Z,3.20
2023-04-07T09:06:05.892Z,3.40
2023-04-07T09:08:33.037Z,7.93
2023-04-07T09:11:00.435Z,4.90
2023-04-07T09:13:27.731Z,5.65
2023-04-07T09:15:56.388Z,6.85
2023-04-07T09:18:24.006Z,3.78
2023-04-07T09:20:59.569Z,6.57
2023-04-07T09:23:31.979Z,4.80
2023-04-07T09:26:18.255Z,3.90
2023-04-07T09:29:05.049Z,4.25
2023-04-07T09:32:43.628Z,3.72
2023-04-07T09:35:11.202Z,5.70
2023-04-07T09:37:38.597Z,5.25
2023-04-07T09:40:06.285Z,4.30
2023-04-07T09:42:36.184Z,3.13
2023-04-07T09:45:03.952Z,6.63
2023-04-07T09:47:33.001Z,3.97
2023-04-07T09:50:06.857Z,4.20
2023-04-07T09:52:52.012Z,5.93
2023-04-07T09:55:22.502Z,4.10
2023-04-07T09:57:55.566Z,2.78
2023-04-07T10:01:02.554Z,2.85
2023-04-07T10:03:30.150Z,3.47
2023-04-07T10:05:57.903Z,4.78
2023-04-07T10:08:25.317Z,3.90
2023-04-07T10:10:52.844Z,7.32
2023-04-07T10:13:21.296Z,4.00
2023-04-07T10:15:49.786Z,4.63
2023-04-07T10:18:20.888Z,4.00
2023-04-07T10:20:51.403Z,3.72
2023-04-07T10:23:25.974Z,3.28
2023-04-07T10:25:56.782Z,4.40
2023-04-07T10:28:32.889Z,3.50
2023-04-07T10:31:01.242Z,7.80
2023-04-07T10:34:07.710Z,3.58
2023-04-07T10:36:38.962Z,5.75
2023-04-07T10:39:26.717Z,6.05
2023-04-07T10:42:01.386Z,4.32
2023-04-07T10:44:46.139Z,5.47
2023-04-07T10:47:14.375Z,4.05
2023-04-07T10:50:20.423Z,7.82
2023-04-07T10:52:49.347Z,3.65
2023-04-07T10:55:29.157Z,4.30
2023-04-07T10:58:31.130Z,4.13
2023-04-07T11:01:04.988Z,6.18
2023-04-07T11:03:35.180Z,3.03
2023-04-07T11:06:06.567Z,7.53
2023-04-07T11:08:40.778Z,6.57
2023-04-07T11:11:21.811Z,3.70
2023-04-07T11:13:51.732Z,3.50
2023-04-07T11:16:34.699Z,4.07
2023-04-07T11:19:02.007Z,3.58
2023-04-07T11:21:30.988Z,3.90
2023-04-07T11:23:58.284Z,6.07
2023-04-07T11:26:25.657Z,3.50
2023-04-07T11:28:54.864Z,5.55
2023-04-07T11:31:31.592Z,3.00
2023-04-07T11:34:02.500Z,3.80
2023-04-07T11:36:40.075Z,3.50
2023-04-07T11:39:20.727Z,4.28
2023-04-07T11:41:49.768Z,4.60
2023-04-07T11:44:19.100Z,3.17
2023-04-07T11:47:05.422Z,6.07
2023-04-07T11:49:33.281Z,4.53
2023-04-07T11:52:09.901Z,4.30
2023-04-07T11:54:47.162Z,3.53
2023-04-07T11:57:24.296Z,3.65
2023-04-07T11:59:51.796Z,5.10
2023-04-07T12:02:43.755Z,4.90
2023-04-07T12:05:12.608Z,3.83
2023-04-07T12:07:42.153Z,4.32
2023-04-07T12:10:28.446Z,4.40
2023-04-07T12:12:58.137Z,4.70
2023-04-07T12:15:26.579Z,4.53
2023-04-07T12:17:55.851Z,4.72
2023-04-07T12:20:23.398Z,4.72
2023-04-07T12:23:14.101Z,6.05
2023-04-07T12:25:44.476Z,3.70
2023-04-07T12:28:11.920Z,3.83
2023-04-07T12:30:39.576Z,4.43
2023-04-07T12:33:07.437Z,3.47
2023-04-07T12:35:35.667Z,5.72
2023-04-07T12:38:05.890Z,5.55
2023-04-07T12:40:34.725Z,4.63
2023-04-07T12:43:02.600Z,4.47
2023-04-07T12:45:31.393Z,5.78
2023-04-07T12:47:59.522Z,4.72
2023-04-07T12:53:09.525Z,6.72
2023-04-07T12:55:37.552Z,5.35
2023-04-07T12:58:04.915Z,7.05
2023-04-07T13:00:32.344Z,6.45
2023-04-07T13:02:59.858Z,5.70
2023-04-07T13:05:55.355Z,6.25
2023-04-07T13:08:22.631Z,7.25
2023-04-07T13:10:50.225Z,6.05
2023-04-07T13:13:17.654Z,7.70
2023-04-07T13:15:45.034Z,6.85
2023-04-07T13:18:12.682Z,9.93
2023-04-07T13:20:40.664Z,8.55
2023-04-07T13:23:10.028Z,7.72
2023-04-07T13:25:38.271Z,7.20
2023-04-07T13:28:09.425Z,7.80
2023-04-07T13:31:01.745Z,6.10
2023-04-07T13:33:29.019Z,6.65
2023-04-07T13:35:56.621Z,6.10
2023-04-07T13:38:24.226Z,6.88
2023-04-07T13:40:51.764Z,8.48
2023-04-07T13:43:19.204Z,6.10
2023-04-07T13:45:47.047Z,8.00
2023-04-07T13:48:22.927Z,6.22
2023-04-07T13:50:50.703Z,6.90
2023-04-07T13:53:19.310Z,8.15
2023-04-07T13:55:56.311Z,9.98
2023-04-07T13:58:23.643Z,5.82
2023-04-07T14:01:09.679Z,7.18
2023-04-07T14:03:37.903Z,8.80
2023-04-07T14:06:05.815Z,10.80
2023-04-07T14:11:19.310Z,7.38
2023-04-07T14:13:47.396Z,7.72
2023-04-07T14:16:18.900Z,8.07
2023-04-07T14:18:47.057Z,10.07
2023-04-07T14:21:22.128Z,8.02
2023-04-07T14:23:49.404Z,8.68
2023-04-07T14:26:17.012Z,9.13
2023-04-07T14:28:44.756Z,9.88
2023-04-07T14:31:16.530Z,5.97
2023-04-07T14:36:15.377Z,9.32
2023-04-07T14:38:58.815Z,5.80
2023-04-07T14:41:26.470Z,5.38
2023-04-07T14:43:57.059Z,8.25
2023-04-07T14:46:25.064Z,7.15
2023-04-07T14:48:52.910Z,7.57
2023-04-07T14:51:45.754Z,10.95
2023-04-07T14:54:13.017Z,8.30
2023-04-07T14:56:44.003Z,6.80
2023-04-07T14:59:14.570Z,6.50
2023-04-07T15:01:42.168Z,7.88
2023-04-07T15:04:13.588Z,7.05
2023-04-07T15:06:46.177Z,6.88
2023-04-07T15:09:15.026Z,8.70
2023-04-07T15:11:42.507Z,6.05
2023-04-07T15:14:09.784Z,7.97
2023-04-07T15:16:37.392Z,6.47
2023-04-07T15:19:04.898Z,8.30
2023-04-07T15:21:32.708Z,6.30
2023-04-07T15:24:00.446Z,7.60
2023-04-07T15:26:52.791Z,12.20
2023-04-07T15:29:20.465Z,9.02
2023-04-07T15:31:47.810Z,11.48
2023-04-07T15:34:15.393Z,10.35
2023-04-07T15:36:43.172Z,9.20
2023-04-07T15:39:10.776Z,10.18
2023-04-07T15:42:03.649Z,10.95
2023-04-07T15:44:39.483Z,14.00
2023-04-07T15:47:07.448Z,10.57
2023-04-07T15:49:37.328Z,8.80
2023-04-07T15:52:05.788Z,11.80
2023-04-07T15:54:33.342Z,11.48
2023-04-07T15:57:13.526Z,10.68
2023-04-07T15:59:41.055Z,10.07
2023-04-07T16:02:33.871Z,11.60
2023-04-07T16:05:10.744Z,9.60
2023-04-07T16:07:44.100Z,9.73
2023-04-07T16:10:16.791Z,11.15
2023-04-07T16:12:45.203Z,12.48
2023-04-07T16:15:13.315Z,10.07
2023-04-07T16:17:43.524Z,12.55
2023-04-07T16:20:15.008Z,12.32
2023-04-07T16:22:48.020Z,10.43
2023-04-07T16:25:28.046Z,12.25
2023-04-07T16:27:55.606Z,10.85
2023-04-07T16:30:24.080Z,11.85
2023-04-07T16:32:51.736Z,12.80
2023-04-07T16:35:19.150Z,12.77
2023-04-07T16:37:46.823Z,11.80
2023-04-07T16:40:14.660Z,12.98
2023-04-07T16:43:33.595Z,10.90
2023-04-07T16:46:01.186Z,16.48
2023-04-07T16:48:29.342Z,11.55
2023-04-07T16:51:28.682Z,12.77
2023-04-07T16:53:56.249Z,11.13
2023-04-07T16:56:25.372Z,12.50
2023-04-07T16:58:52.714Z,12.57
2023-04-07T17:01:20.169Z,13.52
2023-04-07T17:03:51.701Z,11.93
2023-04-07T17:06:34.894Z,14.02
2023-04-07T17:09:02.303Z,13.93
2023-04-07T17:11:29.878Z,14.98
2023-04-07T17:14:09.760Z,13.45
2023-04-07T17:16:37.090Z,13.18
2023-04-07T17:19:04.540Z,13.18
2023-04-07T17:21:32.173Z,13.88
2023-04-07T17:23:59.566Z,15.68
2023-04-07T17:26:27.371Z,15.02
2023-04-07T17:28:54.925Z,20.08
2023-04-07T17:31:28.369Z,23.90
2023-04-07T17:34:21.930Z,16.60
2023-04-07T17:36:49.486Z,17.25
2023-04-07T17:39:17.236Z,14.93
2023-04-07T17:41:50.963Z,18.33
2023-04-07T17:44:18.360Z,16.48
2023-04-07T17:46:46.222Z,17.98
2023-04-07T17:49:13.866Z,16.45
2023-04-07T17:51:43.316Z,14.00
2023-04-07T17:54:10.780Z,14.50
2023-04-07T17:59:19.559Z,17.30
2023-04-07T18:01:47.117Z,16.95
2023-04-07T18:04:15.441Z,15.38
2023-04-07T18:06:46.270Z,14.05
2023-04-07T18:09:13.914Z,18.65
2023-04-07T18:11:41.635Z,16.55
2023-04-07T18:14:09.075Z,14.88
2023-04-07T18:16:36.669Z,13.98
2023-04-07T18:19:04.487Z,17.55
2023-04-07T18:21:31.766Z,19.42
2023-04-07T18:23:59.397Z,14.85
2023-04-07T18:26:27.485Z,16.58
2023-04-07T18:28:54.858Z,15.77
2023-04-07T18:31:22.623Z,17.02
2023-04-07T18:34:15.107Z,19.35
2023-04-07T18:36:55.564Z,17.10
2023-04-07T18:39:23.245Z,12.90
2023-04-07T18:41:51.873Z,14.80
2023-04-07T18:44:31.437Z,16.30
2023-04-07T18:46:59.164Z,14.70
2023-04-07T18:49:28.434Z,15.07
2023-04-07T18:51:56.163Z,19.23
2023-04-07T18:54:24.518Z,15.13
2023-04-07T18:56:52.151Z,17.17
2023-04-07T18:59:19.589Z,16.80
2023-04-07T19:01:52.128Z,15.80
2023-04-07T19:04:31.518Z,13.57
2023-04-07T19:07:02.229Z,14.45
2023-04-07T19:09:32.060Z,14.57
2023-04-07T19:11:59.586Z,14.73
2023-04-07T19:14:30.106Z,15.10
2023-04-07T19:16:57.432Z,13.25
2023-04-07T19:19:24.786Z,12.70
2023-04-07T19:21:52.194Z,14.52
2023-04-07T19:24:19.879Z,15.88
2023-04-07T19:26:57.190Z,13.70
2023-04-07T19:29:24.452Z,12.30
2023-04-07T19:31:53.427Z,14.55
2023-04-07T19:34:20.736Z,13.75
2023-04-07T19:36:48.366Z,16.90
2023-04-07T19:39:16.571Z,16.45
2023-04-07T19:41:50.034Z,15.52
2023-04-07T19:44:18.480Z,14.70
2023-04-07T19:46:45.845Z,14.80
2023-04-07T19:49:13.900Z,16.42
2023-04-07T19:52:07.679Z,13.45
2023-04-07T19:54:35.100Z,18.20
2023-04-07T19:57:03.147Z,15.68
2023-04-07T20:02:12.117Z,12.02
2023-04-07T20:04:42.969Z,12.70
2023-04-07T20:07:10.579Z,14.52
2023-04-07T20:09:38.048Z,15.38
2023-04-07T20:12:05.946Z,14.48
2023-04-07T20:14:33.246Z,11.75
2023-04-07T20:17:01.917Z,14.20
2023-04-07T20:19:29.734Z,12.50
2023-04-07T20:21:57.468Z,14.13
2023-04-07T20:24:25.052Z,13.60
2023-04-07T20:26:52.750Z,12.55
2023-04-07T20:29:21.755Z,15.77
2023-04-07T20:31:49.741Z,12.95
2023-04-07T20:34:18.233Z,15.82
2023-04-07T20:36:48.890Z,14.70
2023-04-07T20:39:16.742Z,12.93
2023-04-07T20:41:45.315Z,12.63
2023-04-07T20:44:14.198Z,13.15
2023-04-07T20:46:42.494Z,15.73
2023-04-07T20:49:11.023Z,12.93
2023-04-07T20:51:38.510Z,13.63
2023-04-07T20:54:06.155Z,12.75
2023-04-07T20:56:33.714Z,11.55
2023-04-07T20:59:01.468Z,12.90
2023-04-07T21:01:32.818Z,16.45
2023-04-07T21:06:30.012Z,12.00
2023-04-07T21:08:57.681Z,12.65
2023-04-07T21:11:25.208Z,13.52
2023-04-07T21:13:54.976Z,13.23
2023-04-07T21:16:22.979Z,14.27
2023-04-07T21:18:53.445Z,12.18
2023-04-07T21:21:20.878Z,15.30
2023-04-07T21:23:48.239Z,14.07
2023-04-07T21:26:16.232Z,12.88
2023-04-07T21:29:09.188Z,12.68
2023-04-07T21:31:36.921Z,12.98
2023-04-07T21:34:04.425Z,12.25
2023-04-07T21:36:32.971Z,12.18
2023-04-07T21:39:25.557Z,14.50
2023-04-07T21:41:53.105Z,14.15
2023-04-07T21:44:21.558Z,12.70
2023-04-07T21:46:49.369Z,13.18
2023-04-07T21:49:22.318Z,15.15
2023-04-07T21:51:50.171Z,12.75
2023-04-07T21:54:17.517Z,11.52
2023-04-07T21:56:49.206Z,10.40
2023-04-07T21:59:17.894Z,11.23
2023-04-07T22:01:47.287Z,13.10
2023-04-07T22:04:15.024Z,12.70
2023-04-07T22:06:42.876Z,12.77
2023-04-07T22:09:13.488Z,14.57
2023-04-07T22:11:41.082Z,12.05
2023-04-07T22:14:08.370Z,10.40
2023-04-07T22:16:35.984Z,13.82
2023-04-07T22:19:03.942Z,11.32
2023-04-07T22:21:34.088Z,12.95
2023-04-07T22:24:01.338Z,14.77
2023-04-07T22:26:32.086Z,12.13
2023-04-07T22:29:04.926Z,10.27
2023-04-07T22:31:32.872Z,10.15
2023-04-07T22:34:00.491Z,11.32
2023-04-07T22:36:28.183Z,12.38
2023-04-07T22:38:59.122Z,14.13
2023-04-07T22:41:27.750Z,14.00
2023-04-07T22:43:55.453Z,11.20
2023-04-07T22:46:22.668Z,14.00
2023-04-07T22:48:50.326Z,14.68
2023-04-07T22:51:18.313Z,11.93
2023-04-07T22:53:46.032Z,14.25
2023-04-07T22:56:13.680Z,13.05
2023-04-07T22:58:41.163Z,11.88
2023-04-07T23:01:08.657Z,15.05
2023-04-07T23:03:36.431Z,11.00
2023-04-07T23:06:04.147Z,12.38
2023-04-07T23:08:31.692Z,11.38
2023-04-07T23:10:58.986Z,12.02
2023-04-07T23:17:52.059Z,12.25
2023-04-07T23:20:19.536Z,11.30
2023-04-07T23:22:46.745Z,11.90
2023-04-07T23:25:23.614Z,9.88
2023-04-07T23:27:51.272Z,13.77
2023-04-07T23:30:18.805Z,10.75
2023-04-07T23:32:46.410Z,10.77
2023-04-07T23:35:13.931Z,10.27
2023-04-07T23:37:42.443Z,11.70
2023-04-07T23:40:10.645Z,9.70
2023-04-07T23:42:38.170Z,11.98
2023-04-07T23:45:06.212Z,10.80
2023-04-07T23:47:33.447Z,10.10
2023-04-07T23:50:01.127Z,12.80
2023-04-07T23:52:28.526Z,11.75
2023-04-07T23:54:56.065Z,11.25
2023-04-07T23:57:23.741Z,11.80
2023-04-07T23:59:51.191Z,13.27
